Hauptseite
METAR-TAF:

METAR-TAF

Flughäfen :

Flughafen Xi’an-Xianyang

Xi’an, China

Breite: 34-26N, Länge: 108-45E, Höhe: 479 m

Beobachtung

Neuester Wetterbericht von vor 1 Stunde und 1 Minuten, um 14:00 UTC
Wind 2 kt aus West
Temperatur 14°C
Luftfeuchtigkeit 38%
Luftdruck 1013 hPa
Sichtweite 10 km oder mehr
keine Wolken unter 1500 m und keine Kumulonimbus oder Gewitterwolken

METAR: ZLXY 261400Z 27001MPS CAVOK 14/00 Q1013 NOSIG

Zeit: 23:01 (15:01 UTC)

Prognose

Neuester Wetterbericht von vor 5 Stunden und 56 Minuten, um 09:05 UTC
Gültige Prognose vom 26 um 12 UTC bis 27 um 12 UTC
Wind 6 kt aus Ost/Nordost
Sichtweite: 3000 m
trockener Dunst

TAF: ZLXY 260905Z 2612/2712 06003MPS 3000 HZ NSC TX23/2707Z TN07/2622Z

Wetterbeobachtungen und Prognosen von mehr als 4000 Flughäfen (METAR und TAF Bericht).

Die verfügbaren Stationen werden durch gelbe und rote Markierungen auf der Karte dargestellt.

Führen Sie die Maus auf sie, um den Namen der Station zu sehen.

Darauf klicken, um die Beobachtung von Wetterbeobachtungen und Prognosen zu sehen.

Um die Karte zu ändern : klicken Sie auf den grünen Tasten mit einem schwarzen Kreuz Zum Vergrößern, auf den grünen Button mit einem Gedankenstrich zu verkleinern, oder auf die grünen Pfeile für benachbarte Karten.


METAR-TAF: